Time;durP1;ratioP1;P1;durP2;ratioP2;P2;SDS_P1;SDS_P2;PMS_P1;PMS_P2;Temp;Humidity;BMP_temperature;BMP_pressure;BME280_temperature;BME280_humidity;BME280_pressure;Samples;Min_cycle;Max_cycle;Signal;HPM_P1;HPM_P2
2024/01/20 00:00:31;;;;;;;3.58;3.25;;;-6.30;99.90;;;;;;4940240;28;20138;-77
2024/01/20 00:02:56;;;;;;;5.50;4.47;;;-6.20;99.90;;;;;;4950525;29;20071;-74
2024/01/20 00:05:22;;;;;;;5.13;4.63;;;-6.10;99.90;;;;;;4944162;28;20039;-75
2024/01/20 00:07:48;;;;;;;4.35;3.92;;;-6.20;99.90;;;;;;4936634;28;20507;-74
2024/01/20 00:10:14;;;;;;;5.30;4.80;;;-6.20;99.90;;;;;;4936887;28;21245;-74
2024/01/20 00:12:41;;;;;;;5.10;4.63;;;-6.20;99.90;;;;;;4938856;28;20417;-75
2024/01/20 00:15:10;;;;;;;4.35;3.97;;;-6.20;99.90;;;;;;4920336;28;20034;-75
2024/01/20 00:17:37;;;;;;;6.38;5.65;;;-6.20;99.90;;;;;;4940183;28;20024;-74
2024/01/20 00:20:04;;;;;;;5.22;4.20;;;-6.10;99.90;;;;;;4936182;29;20031;-74
2024/01/20 00:22:30;;;;;;;3.75;3.47;;;-6.20;99.90;;;;;;4924028;29;20041;-75
2024/01/20 00:24:59;;;;;;;4.75;3.88;;;-6.30;99.90;;;;;;4934512;28;20035;-75
2024/01/20 00:27:25;;;;;;;;;;;-6.30;99.90;;;;;;4937119;28;20035;-74
2024/01/20 00:29:50;;;;;;;3.50;3.30;;;-6.40;99.90;;;;;;4938378;28;20001;-75
2024/01/20 00:32:16;;;;;;;3.53;3.28;;;-6.60;99.90;;;;;;4940495;28;20288;-75
2024/01/20 00:34:42;;;;;;;4.10;3.75;;;-6.60;99.90;;;;;;4939062;28;20030;-75
2024/01/20 00:37:07;;;;;;;3.63;2.47;;;-6.50;99.90;;;;;;4937660;28;20045;-75
2024/01/20 00:39:33;;;;;;;3.35;3.15;;;-6.50;99.90;;;;;;4934944;28;20035;-71
2024/01/20 00:41:58;;;;;;;4.15;3.85;;;-6.50;99.90;;;;;;4934684;28;20556;-70
2024/01/20 00:44:24;;;;;;;5.28;4.78;;;-6.50;99.90;;;;;;4934220;28;20057;-73
2024/01/20 00:46:49;;;;;;;6.18;4.88;;;-6.60;99.90;;;;;;4934468;28;20039;-72
2024/01/20 00:49:15;;;;;;;6.15;5.40;;;-6.60;99.90;;;;;;4936133;28;20007;-75
2024/01/20 00:51:41;;;;;;;4.10;3.83;;;-6.70;99.90;;;;;;4949078;29;20118;-75
2024/01/20 00:54:07;;;;;;;5.13;4.45;;;-6.70;99.90;;;;;;4945661;29;20034;-77
2024/01/20 00:56:33;;;;;;;5.45;4.85;;;-6.70;99.90;;;;;;4947763;29;20099;-76
2024/01/20 00:58:58;;;;;;;3.50;3.22;;;-6.70;99.90;;;;;;4948081;28;20062;-75
2024/01/20 01:01:24;;;;;;;10.82;4.85;;;-6.70;99.90;;;;;;4949868;28;20585;-75
2024/01/20 01:03:50;;;;;;;3.85;3.58;;;-6.80;99.90;;;;;;4947646;29;20040;-75
2024/01/20 01:06:15;;;;;;;6.68;5.13;;;-6.70;99.90;;;;;;4951780;28;20113;-75
2024/01/20 01:08:41;;;;;;;6.20;4.47;;;-6.70;99.90;;;;;;4949508;28;20055;-76
2024/01/20 01:11:07;;;;;;;5.72;5.20;;;-6.60;99.90;;;;;;4946304;28;20095;-75
2024/01/20 01:13:35;;;;;;;5.25;4.07;;;-6.60;99.90;;;;;;4950530;28;20049;-75
2024/01/20 01:16:02;;;;;;;4.95;4.45;;;-6.70;99.90;;;;;;4960888;28;20533;-76
2024/01/20 01:18:27;;;;;;;3.85;3.45;;;-6.60;99.90;;;;;;4951909;29;20118;-74
2024/01/20 01:20:53;;;;;;;4.32;3.97;;;-6.60;99.90;;;;;;4952761;28;20066;-76
2024/01/20 01:23:19;;;;;;;5.85;5.25;;;-6.60;99.90;;;;;;4951349;28;20097;-75
2024/01/20 01:25:44;;;;;;;4.68;4.38;;;-6.60;99.90;;;;;;4948420;28;21649;-76
2024/01/20 01:28:10;;;;;;;6.53;3.90;;;-6.60;99.90;;;;;;4948011;28;20051;-75
2024/01/20 01:30:36;;;;;;;9.93;5.22;;;-6.70;99.90;;;;;;4948163;28;20038;-75
2024/01/20 01:33:01;;;;;;;4.93;3.92;;;-6.70;99.90;;;;;;4948912;28;20003;-74
2024/01/20 01:35:27;;;;;;;3.42;2.92;;;-6.80;99.90;;;;;;4946844;28;20040;-74
2024/01/20 01:37:52;;;;;;;4.50;3.75;;;-6.90;99.90;;;;;;4951847;28;20035;-75
2024/01/20 01:40:18;;;;;;;8.82;4.50;;;-6.90;99.90;;;;;;4953697;28;20264;-75
2024/01/20 01:42:44;;;;;;;5.78;5.40;;;-6.90;99.90;;;;;;4941341;28;20053;-75
2024/01/20 01:45:10;;;;;;;4.18;3.80;;;-7.00;99.90;;;;;;4948656;28;20035;-75
2024/01/20 01:47:35;;;;;;;4.28;3.78;;;-7.00;99.90;;;;;;4948891;28;20086;-76
2024/01/20 01:50:02;;;;;;;7.55;5.32;;;-7.00;99.90;;;;;;4951459;28;20027;-76
2024/01/20 01:52:29;;;;;;;6.53;4.68;;;-7.00;99.90;;;;;;4936342;29;20920;-76
2024/01/20 01:54:57;;;;;;;6.53;3.23;;;-6.90;99.90;;;;;;4949107;28;20043;-77
2024/01/20 01:57:24;;;;;;;5.45;4.93;;;-7.00;99.90;;;;;;4954339;29;20027;-76
2024/01/20 01:59:50;;;;;;;3.47;2.65;;;-7.00;99.90;;;;;;4956208;28;21087;-76
2024/01/20 02:02:16;;;;;;;3.50;3.30;;;-7.10;99.90;;;;;;4953125;28;20074;-77
2024/01/20 02:04:42;;;;;;;5.00;4.45;;;-7.20;99.90;;;;;;4953615;28;20043;-75
2024/01/20 02:07:07;;;;;;;3.55;3.38;;;-7.20;99.90;;;;;;4948953;28;20035;-76
2024/01/20 02:09:34;;;;;;;4.65;4.18;;;-7.20;99.90;;;;;;4951953;28;20038;-77
2024/01/20 02:12:01;;;;;;;2.78;2.28;;;-7.30;99.90;;;;;;4954402;28;20099;-77
2024/01/20 02:14:27;;;;;;;4.68;3.45;;;-7.50;99.90;;;;;;4952594;29;20397;-76
2024/01/20 02:16:52;;;;;;;4.57;4.13;;;-7.60;99.90;;;;;;4953786;29;20050;-76
2024/01/20 02:19:18;;;;;;;4.18;3.83;;;-7.60;99.90;;;;;;4951397;28;20110;-77
2024/01/20 02:21:44;;;;;;;3.58;3.25;;;-7.50;99.90;;;;;;4949440;28;20042;-77
2024/01/20 02:24:09;;;;;;;4.20;3.75;;;-7.50;99.90;;;;;;4956405;28;20037;-77
2024/01/20 02:26:35;;;;;;;4.93;3.33;;;-7.40;99.90;;;;;;4956320;28;20103;-77
2024/01/20 02:29:01;;;;;;;3.70;3.40;;;-7.30;99.90;;;;;;4959041;28;20860;-77
2024/01/20 02:31:27;;;;;;;4.97;4.00;;;-7.30;99.90;;;;;;4960787;28;20074;-76
2024/01/20 02:33:52;;;;;;;8.05;4.00;;;-7.30;99.90;;;;;;4960802;28;20019;-75
2024/01/20 02:36:18;;;;;;;3.88;3.35;;;-7.20;99.90;;;;;;4958250;28;20038;-77
2024/01/20 02:38:43;;;;;;;6.22;4.18;;;-7.30;99.90;;;;;;4944844;28;20078;-77
2024/01/20 02:41:09;;;;;;;5.28;4.82;;;-7.30;99.90;;;;;;4956178;28;20057;-80
2024/01/20 02:43:35;;;;;;;8.68;5.20;;;-7.50;99.90;;;;;;4950779;28;20023;-77
2024/01/20 02:46:01;;;;;;;4.13;3.58;;;-7.60;99.90;;;;;;4954650;28;20028;-77
2024/01/20 02:48:26;;;;;;;11.25;4.43;;;-7.50;99.90;;;;;;4953995;28;20104;-76
2024/01/20 02:50:52;;;;;;;3.45;3.20;;;-7.60;99.90;;;;;;4957412;29;20039;-75
2024/01/20 02:53:17;;;;;;;4.82;2.92;;;-7.50;99.90;;;;;;4952541;28;20040;-76
2024/01/20 02:55:43;;;;;;;3.58;3.35;;;-7.50;99.90;;;;;;4954091;28;20086;-76
2024/01/20 02:58:09;;;;;;;4.40;4.00;;;-7.50;99.90;;;;;;4937230;29;20038;-76
2024/01/20 03:00:34;;;;;;;2.58;2.40;;;-7.50;99.90;;;;;;4946905;28;20047;-75
2024/01/20 03:03:00;;;;;;;4.25;3.92;;;-7.50;99.90;;;;;;4955944;29;20063;-75
2024/01/20 03:05:26;;;;;;;4.53;3.97;;;-7.50;99.90;;;;;;4952362;28;20032;-77
2024/01/20 03:07:51;;;;;;;12.63;3.38;;;-7.50;99.90;;;;;;4952967;28;20046;-72
2024/01/20 03:10:17;;;;;;;7.03;4.13;;;-7.60;99.90;;;;;;4952363;29;20152;-75
2024/01/20 03:12:43;;;;;;;3.53;2.85;;;-7.70;99.90;;;;;;4943835;29;20118;-76
2024/01/20 03:15:08;;;;;;;6.32;4.25;;;-7.70;99.90;;;;;;4947769;28;20248;-74
2024/01/20 03:17:34;;;;;;;3.45;3.22;;;-7.80;99.90;;;;;;4947498;28;20031;-74
2024/01/20 03:20:00;;;;;;;4.70;3.47;;;-7.80;99.90;;;;;;4944607;28;20103;-75
2024/01/20 03:22:26;;;;;;;4.85;4.45;;;-7.80;99.90;;;;;;4952177;29;20043;-74
2024/01/20 03:24:51;;;;;;;4.47;4.07;;;-7.80;99.90;;;;;;4950900;28;20067;-75
2024/01/20 03:27:18;;;;;;;2.92;2.83;;;-7.80;99.90;;;;;;4950650;28;20468;-74
2024/01/20 03:29:44;;;;;;;2.90;2.80;;;-7.90;99.90;;;;;;4942816;29;20027;-76
2024/01/20 03:32:10;;;;;;;4.35;3.17;;;-7.90;99.90;;;;;;4921299;29;20063;-75
2024/01/20 03:34:36;;;;;;;5.05;4.50;;;-7.80;99.90;;;;;;4952274;29;20045;-77
2024/01/20 03:37:02;;;;;;;3.92;3.72;;;-7.90;99.90;;;;;;4946730;28;20114;-75
2024/01/20 03:39:27;;;;;;;5.15;4.63;;;-7.90;99.90;;;;;;4951093;28;20042;-73
2024/01/20 03:41:53;;;;;;;5.22;4.05;;;-7.90;99.90;;;;;;4944488;29;20035;-75
2024/01/20 03:44:19;;;;;;;5.90;3.97;;;-7.90;99.90;;;;;;4949730;29;20502;-74
2024/01/20 03:46:44;;;;;;;5.30;3.67;;;-7.80;99.90;;;;;;4949157;28;20071;-75
2024/01/20 03:49:10;;;;;;;7.18;5.55;;;-7.90;99.90;;;;;;4950099;29;20484;-75
2024/01/20 03:51:35;;;;;;;3.40;3.20;;;-7.90;99.90;;;;;;4947357;28;20055;-76
2024/01/20 03:54:04;;;;;;;4.13;3.83;;;-7.80;99.90;;;;;;4944847;28;20043;-75
2024/01/20 03:56:30;;;;;;;5.18;3.60;;;-7.80;99.90;;;;;;4952789;29;20383;-75
2024/01/20 03:58:55;;;;;;;3.75;3.45;;;-7.80;99.90;;;;;;4928469;29;20035;-75
2024/01/20 04:01:21;;;;;;;3.63;3.42;;;-7.80;99.90;;;;;;4952585;29;20055;-76
2024/01/20 04:03:46;;;;;;;3.00;2.90;;;-7.70;99.90;;;;;;4943495;29;20031;-76
2024/01/20 04:06:12;;;;;;;3.13;3.03;;;-7.80;99.90;;;;;;4952137;29;20041;-75
2024/01/20 04:08:38;;;;;;;4.20;3.08;;;-7.80;99.90;;;;;;4938036;29;20035;-77
2024/01/20 04:11:03;;;;;;;3.38;3.08;;;-7.80;99.90;;;;;;4957634;29;20035;-77
2024/01/20 04:13:29;;;;;;;3.40;3.20;;;-7.90;99.90;;;;;;4953218;28;20027;-77
2024/01/20 04:15:55;;;;;;;2.90;2.47;;;-7.80;99.90;;;;;;4960260;28;20035;-77
2024/01/20 04:18:21;;;;;;;6.15;3.90;;;-7.80;99.90;;;;;;4958241;29;20879;-74
2024/01/20 04:20:46;;;;;;;3.72;3.22;;;-7.90;99.90;;;;;;4947220;28;20499;-74
2024/01/20 04:23:12;;;;;;;6.13;4.07;;;-7.90;99.90;;;;;;4943808;28;20060;-73
2024/01/20 04:25:38;;;;;;;4.80;4.00;;;-7.90;99.90;;;;;;4952722;28;20035;-73
2024/01/20 04:28:04;;;;;;;5.07;2.92;;;-7.90;99.90;;;;;;4944756;28;20023;-72
2024/01/20 04:30:29;;;;;;;3.90;3.60;;;-7.90;99.90;;;;;;4943069;29;20119;-72
2024/01/20 04:32:55;;;;;;;3.30;2.92;;;-8.00;99.90;;;;;;4948619;28;20031;-73
2024/01/20 04:35:21;;;;;;;15.98;5.47;;;-8.00;99.90;;;;;;4944753;28;20074;-72
2024/01/20 04:37:46;;;;;;;3.65;3.45;;;-8.00;99.90;;;;;;4943232;28;20077;-71
2024/01/20 04:40:12;;;;;;;4.97;4.45;;;-8.10;99.90;;;;;;4940143;28;20024;-72
2024/01/20 04:42:37;;;;;;;3.13;2.92;;;-8.10;99.90;;;;;;4943297;28;20036;-72
2024/01/20 04:45:04;;;;;;;3.08;2.85;;;-8.20;99.90;;;;;;4940918;28;20492;-73
2024/01/20 04:47:31;;;;;;;6.28;3.58;;;-8.10;99.90;;;;;;4945919;29;20296;-73
2024/01/20 04:49:56;;;;;;;2.63;2.53;;;-8.20;99.90;;;;;;4943519;29;20035;-72
2024/01/20 04:52:23;;;;;;;3.63;2.72;;;-8.20;99.90;;;;;;4935593;29;20038;-73
2024/01/20 04:54:48;;;;;;;14.27;5.38;;;-8.20;99.90;;;;;;4946049;28;20027;-73
2024/01/20 04:57:14;;;;;;;10.05;6.22;;;-8.20;99.90;;;;;;4935763;28;20051;-72
2024/01/20 04:59:39;;;;;;;5.70;5.25;;;-8.20;99.90;;;;;;4946649;29;20039;-73
2024/01/20 05:02:05;;;;;;;4.75;4.32;;;-8.10;99.90;;;;;;4931325;28;20054;-73
2024/01/20 05:04:31;;;;;;;4.93;4.45;;;-8.20;99.90;;;;;;4946431;28;20099;-72
2024/01/20 05:06:57;;;;;;;3.30;3.00;;;-8.20;99.90;;;;;;4929011;29;20035;-72
2024/01/20 05:09:22;;;;;;;3.03;2.83;;;-8.20;99.90;;;;;;4944432;28;20075;-73
2024/01/20 05:11:48;;;;;;;3.90;2.83;;;-8.10;99.90;;;;;;4946576;28;20489;-72
2024/01/20 05:14:14;;;;;;;3.22;3.13;;;-8.10;99.90;;;;;;4946229;29;20036;-72
2024/01/20 05:16:39;;;;;;;4.40;2.35;;;-8.20;99.90;;;;;;4935307;28;20042;-72
2024/01/20 05:19:05;;;;;;;3.17;3.00;;;-8.10;99.90;;;;;;4951079;28;20042;-77
2024/01/20 05:21:30;;;;;;;2.90;2.75;;;-8.20;99.90;;;;;;4957016;28;20038;-76
2024/01/20 05:23:57;;;;;;;2.30;2.20;;;-8.30;99.90;;;;;;4949437;28;20133;-78
2024/01/20 05:26:23;;;;;;;2.05;1.95;;;-8.30;99.90;;;;;;4925555;29;20038;-76
2024/01/20 05:28:48;;;;;;;2.80;2.60;;;-8.50;99.90;;;;;;4946565;29;20180;-75
2024/01/20 05:31:14;;;;;;;3.50;3.28;;;-8.50;99.90;;;;;;4954132;28;20054;-74
2024/01/20 05:33:40;;;;;;;2.67;2.58;;;-8.40;99.90;;;;;;4938153;29;20045;-74
2024/01/20 05:36:06;;;;;;;3.53;2.72;;;-8.40;99.90;;;;;;4948118;28;20047;-73
2024/01/20 05:38:31;;;;;;;4.43;3.28;;;-8.30;99.90;;;;;;4950385;28;20047;-74
2024/01/20 05:40:57;;;;;;;7.97;3.25;;;-8.30;99.90;;;;;;4952551;29;20023;-75
2024/01/20 05:43:23;;;;;;;4.28;3.92;;;-8.30;99.90;;;;;;4947218;28;20023;-74
2024/01/20 05:45:48;;;;;;;2.80;2.70;;;-8.30;99.90;;;;;;4951381;28;20071;-74
2024/01/20 05:48:14;;;;;;;3.75;3.13;;;-8.40;99.90;;;;;;4948982;29;20039;-74
2024/01/20 05:50:39;;;;;;;1.90;1.90;;;-8.40;99.90;;;;;;4943673;28;20701;-75
2024/01/20 05:53:05;;;;;;;4.05;3.75;;;-8.40;99.90;;;;;;4955220;28;20043;-75
2024/01/20 05:55:31;;;;;;;9.23;3.63;;;-8.40;99.90;;;;;;4936118;28;20043;-74
2024/01/20 05:57:56;;;;;;;3.97;3.70;;;-8.40;99.90;;;;;;4948087;28;20023;-75
2024/01/20 06:00:23;;;;;;;4.00;3.78;;;-8.40;99.90;;;;;;4950310;28;20063;-74
2024/01/20 06:02:48;;;;;;;3.83;3.22;;;-8.40;99.90;;;;;;4947691;29;20102;-74
2024/01/20 06:05:14;;;;;;;4.53;4.13;;;-8.50;99.90;;;;;;4951641;28;20039;-74
2024/01/20 06:07:40;;;;;;;2.75;2.58;;;-8.40;99.90;;;;;;4951203;28;20143;-74
2024/01/20 06:10:06;;;;;;;3.78;3.22;;;-8.40;99.90;;;;;;4945277;29;20035;-75
2024/01/20 06:12:31;;;;;;;2.78;2.60;;;-8.40;99.90;;;;;;4947343;28;20032;-76
2024/01/20 06:14:57;;;;;;;5.30;3.50;;;-8.50;99.90;;;;;;4951763;28;20099;-73
2024/01/20 06:17:23;;;;;;;3.75;3.20;;;-8.40;99.90;;;;;;4949960;29;20043;-74
2024/01/20 06:19:48;;;;;;;3.30;2.85;;;-8.40;99.90;;;;;;4945644;28;20040;-76
2024/01/20 06:22:14;;;;;;;2.83;2.72;;;-8.40;99.90;;;;;;4945002;28;20027;-77
2024/01/20 06:24:39;;;;;;;3.65;2.95;;;-8.50;99.90;;;;;;4948305;28;20923;-77
2024/01/20 06:27:05;;;;;;;2.55;2.03;;;-8.50;99.90;;;;;;4943221;29;20549;-75
2024/01/20 06:29:31;;;;;;;3.28;3.08;;;-8.50;99.90;;;;;;4948812;28;20047;-74
2024/01/20 06:31:56;;;;;;;2.90;2.65;;;-8.50;99.90;;;;;;4954893;28;20511;-75
2024/01/20 06:34:22;;;;;;;3.80;3.20;;;-8.60;99.90;;;;;;4951445;28;20067;-73
2024/01/20 06:36:48;;;;;;;7.00;5.28;;;-8.50;99.90;;;;;;4947833;29;20488;-74
2024/01/20 06:39:13;;;;;;;3.20;3.08;;;-8.50;99.90;;;;;;4949992;28;20039;-75
2024/01/20 06:41:40;;;;;;;9.98;3.97;;;-8.50;99.90;;;;;;4949351;28;20031;-75
2024/01/20 06:44:06;;;;;;;5.03;3.25;;;-8.50;99.90;;;;;;4951941;29;20029;-75
2024/01/20 06:46:32;;;;;;;6.75;3.65;;;-8.40;99.90;;;;;;4949598;29;20516;-74
2024/01/20 06:48:58;;;;;;;3.58;3.28;;;-8.50;99.90;;;;;;4950252;28;20118;-74
2024/01/20 06:51:26;;;;;;;2.85;2.70;;;-8.40;99.90;;;;;;4932844;29;20403;-73
2024/01/20 06:53:57;;;;;;;;;;;-8.50;99.90;;;;;;4951638;29;20094;-74
2024/01/20 06:56:24;;;;;;;4.50;4.28;;;-8.50;99.90;;;;;;4943767;28;19922;-75
2024/01/20 06:58:51;;;;;;;8.45;3.92;;;-8.50;99.90;;;;;;4949035;28;20045;-75
2024/01/20 07:01:16;;;;;;;4.97;3.58;;;-8.50;99.90;;;;;;4948487;29;20098;-74
2024/01/20 07:03:42;;;;;;;3.10;2.72;;;-8.60;99.90;;;;;;4944828;29;20035;-74
2024/01/20 07:06:08;;;;;;;2.90;2.70;;;-8.60;99.90;;;;;;4948112;29;20654;-74
2024/01/20 07:08:34;;;;;;;12.15;4.97;;;-8.60;99.90;;;;;;4944704;28;20386;-73
2024/01/20 07:11:00;;;;;;;2.83;2.63;;;-8.70;99.90;;;;;;4945705;29;20067;-74
2024/01/20 07:13:25;;;;;;;2.75;2.38;;;-8.80;99.90;;;;;;4951282;28;20035;-75
2024/01/20 07:15:51;;;;;;;2.65;2.55;;;-8.80;99.90;;;;;;4952301;28;20039;-74
2024/01/20 07:18:17;;;;;;;3.50;3.22;;;-8.80;99.90;;;;;;4932409;28;20746;-78
2024/01/20 07:20:44;;;;;;;6.57;5.55;;;-8.70;99.90;;;;;;4945770;29;20090;-76
2024/01/20 07:23:10;;;;;;;6.82;3.97;;;-8.70;99.90;;;;;;4947491;29;20024;-74
2024/01/20 07:25:36;;;;;;;2.85;2.58;;;-8.70;99.90;;;;;;4932577;29;20110;-74
2024/01/20 07:28:04;;;;;;;6.63;4.55;;;-8.70;99.90;;;;;;4946607;28;20535;-75
2024/01/20 07:30:30;;;;;;;5.25;3.50;;;-8.70;99.90;;;;;;4944873;29;20015;-74
2024/01/20 07:32:58;;;;;;;8.60;6.28;;;-8.70;99.90;;;;;;4949824;28;20038;-74
2024/01/20 07:35:25;;;;;;;4.70;4.32;;;-8.80;99.90;;;;;;4939689;28;20040;-73
2024/01/20 07:37:51;;;;;;;9.82;4.60;;;-8.80;99.90;;;;;;4958019;28;20050;-74
2024/01/20 07:40:17;;;;;;;4.18;3.85;;;-8.80;99.90;;;;;;4945560;28;20035;-74
2024/01/20 07:42:43;;;;;;;5.45;3.45;;;-8.80;99.90;;;;;;4932510;28;20031;-73
2024/01/20 07:45:09;;;;;;;4.32;3.92;;;-8.70;99.90;;;;;;4944316;28;20469;-75
2024/01/20 07:47:35;;;;;;;3.72;3.53;;;-8.80;99.90;;;;;;4948490;28;20043;-74
2024/01/20 07:50:00;;;;;;;2.85;2.65;;;-8.80;99.90;;;;;;4947401;29;20388;-77
2024/01/20 07:52:26;;;;;;;4.38;3.45;;;-8.80;99.90;;;;;;4951153;28;20042;-77
2024/01/20 07:54:51;;;;;;;4.97;4.63;;;-8.70;99.90;;;;;;4948004;29;20039;-76
2024/01/20 07:57:17;;;;;;;4.75;4.32;;;-8.70;99.90;;;;;;4950327;28;20305;-75
2024/01/20 07:59:43;;;;;;;4.35;4.00;;;-8.60;99.90;;;;;;4951015;28;20027;-74
2024/01/20 08:02:08;;;;;;;5.35;4.93;;;-8.50;99.90;;;;;;4961236;28;20024;-76
2024/01/20 08:04:34;;;;;;;4.53;3.65;;;-8.60;99.90;;;;;;4953822;28;20032;-76
2024/01/20 08:07:00;;;;;;;4.82;4.65;;;-8.60;99.90;;;;;;4957979;28;20035;-77
2024/01/20 08:09:25;;;;;;;5.60;5.07;;;-8.50;99.90;;;;;;4954323;28;20043;-77
2024/01/20 08:11:51;;;;;;;2.33;2.20;;;-8.50;99.90;;;;;;4946738;29;20039;-76
2024/01/20 08:14:16;;;;;;;3.13;2.92;;;-8.40;99.90;;;;;;4944952;28;20071;-75
2024/01/20 08:16:42;;;;;;;3.58;3.35;;;-8.40;99.90;;;;;;4948712;29;20024;-75
2024/01/20 08:19:08;;;;;;;3.33;3.13;;;-8.50;99.90;;;;;;4951013;28;20080;-75
2024/01/20 08:21:34;;;;;;;6.57;3.78;;;-8.40;99.90;;;;;;4952299;29;20098;-75
2024/01/20 08:24:00;;;;;;;5.40;3.38;;;-8.40;99.90;;;;;;4950811;28;20089;-75
2024/01/20 08:26:26;;;;;;;3.28;3.00;;;-8.40;99.90;;;;;;4948808;29;20037;-75
2024/01/20 08:28:51;;;;;;;5.25;4.75;;;-8.30;99.90;;;;;;4948757;29;20402;-75
2024/01/20 08:31:17;;;;;;;7.30;4.65;;;-8.30;99.90;;;;;;4951803;28;20134;-75
2024/01/20 08:33:42;;;;;;;4.10;3.22;;;-8.20;99.90;;;;;;4952609;28;20054;-74
2024/01/20 08:36:08;;;;;;;6.32;4.72;;;-8.20;99.90;;;;;;4940753;29;20050;-75
2024/01/20 08:38:36;;;;;;;7.78;4.18;;;-8.20;99.90;;;;;;4964999;28;20513;-76
2024/01/20 08:41:11;;;;;;;4.65;4.18;;;-8.20;99.90;;;;;;4954967;29;20023;-75
2024/01/20 08:43:42;;;;;;;5.10;4.68;;;-8.10;99.90;;;;;;4944875;29;20062;-77
2024/01/20 08:46:07;;;;;;;5.43;3.65;;;-8.10;99.90;;;;;;4956018;29;20027;-76
2024/01/20 08:48:34;;;;;;;5.53;5.00;;;-8.00;99.90;;;;;;4938543;29;20028;-76
2024/01/20 08:51:00;;;;;;;3.78;3.55;;;-7.90;99.90;;;;;;4958608;28;20502;-75
2024/01/20 08:53:29;;;;;;;7.32;4.95;;;-7.80;99.90;;;;;;4963301;28;20031;-76
2024/01/20 08:55:56;;;;;;;4.60;4.18;;;-7.70;99.90;;;;;;4939781;29;20451;-76
2024/01/20 08:58:29;;;;;;;3.20;2.95;;;-7.70;99.90;;;;;;4956279;28;20028;-71
2024/01/20 09:00:56;;;;;;;7.20;4.75;;;-7.70;99.90;;;;;;4950900;28;20059;-72
2024/01/20 09:03:22;;;;;;;3.95;3.60;;;-7.70;99.90;;;;;;4949642;28;20595;-72
2024/01/20 09:05:52;;;;;;;4.85;4.45;;;-7.60;99.90;;;;;;4946649;29;20031;-71
2024/01/20 09:08:39;;;;;;;5.32;4.32;;;-7.50;99.90;;;;;;4949205;28;20062;-74
2024/01/20 09:11:04;;;;;;;3.60;3.38;;;-7.40;99.90;;;;;;4941097;29;20055;-72
2024/01/20 09:13:33;;;;;;;4.55;4.22;;;-7.30;99.90;;;;;;4948713;28;20042;-72
2024/01/20 09:15:59;;;;;;;2.83;2.58;;;-7.20;99.90;;;;;;4952598;28;20450;-72
2024/01/20 09:18:28;;;;;;;4.47;4.07;;;-7.10;99.90;;;;;;4935476;28;20110;-74
2024/01/20 09:20:57;;;;;;;4.10;3.28;;;-6.90;99.90;;;;;;4948055;29;20047;-76
2024/01/20 09:23:22;;;;;;;3.72;3.47;;;-6.80;99.90;;;;;;4949885;28;20051;-74
2024/01/20 09:25:48;;;;;;;6.22;3.58;;;-6.70;99.90;;;;;;4933150;29;20047;-73
2024/01/20 09:28:14;;;;;;;5.93;3.08;;;-6.70;99.90;;;;;;4923891;29;20023;-73
2024/01/20 09:30:40;;;;;;;2.88;2.67;;;-6.60;99.90;;;;;;4946549;29;20590;-73
2024/01/20 09:33:12;;;;;;;2.95;2.85;;;-6.60;99.90;;;;;;4945241;29;20055;-73
2024/01/20 09:35:38;;;;;;;7.93;3.10;;;-6.50;99.90;;;;;;4949602;28;20142;-72
2024/01/20 09:38:05;;;;;;;2.70;2.60;;;-6.50;99.90;;;;;;4926720;29;20145;-73
2024/01/20 09:40:32;;;;;;;4.97;2.53;;;-6.40;99.90;;;;;;4938466;29;20051;-73
2024/01/20 09:42:59;;;;;;;2.50;2.30;;;-6.40;99.90;;;;;;4944554;28;20036;-73
2024/01/20 09:45:28;;;;;;;3.95;3.75;;;-6.30;99.90;;;;;;4950691;29;20046;-73
2024/01/20 09:48:02;;;;;;;4.00;3.80;;;-6.30;99.90;;;;;;4930277;29;20553;-73
2024/01/20 09:50:33;;;;;;;5.82;3.83;;;-6.20;99.90;;;;;;4928908;28;20058;-73
2024/01/20 09:53:25;;;;;;;3.60;2.85;;;-6.20;99.90;;;;;;4939923;28;20040;-73
2024/01/20 09:55:54;;;;;;;4.03;2.30;;;-6.10;99.90;;;;;;4933640;29;20143;-72
2024/01/20 09:58:21;;;;;;;5.22;3.53;;;-6.10;99.90;;;;;;4935026;29;20036;-73
2024/01/20 10:00:52;;;;;;;7.28;5.35;;;-6.00;99.90;;;;;;4935251;29;20355;-74
2024/01/20 10:03:23;;;;;;;5.35;4.85;;;-5.90;99.90;;;;;;4940170;28;20044;-73
2024/01/20 10:05:52;;;;;;;5.03;4.50;;;-5.80;99.90;;;;;;4943768;29;20042;-74
2024/01/20 10:08:24;;;;;;;4.57;4.25;;;-5.80;99.90;;;;;;4928402;29;20322;-76
2024/01/20 10:11:16;;;;;;;5.22;4.20;;;-5.70;99.90;;;;;;4938904;29;20059;-77
2024/01/20 10:13:51;;;;;;;4.53;4.07;;;-5.60;99.90;;;;;;4955723;28;20051;-78
2024/01/20 10:16:53;;;;;;;2.72;2.50;;;-5.50;99.90;;;;;;4952954;29;20046;-76
2024/01/20 10:19:19;;;;;;;7.97;5.75;;;-5.50;99.90;;;;;;4909392;29;20051;-77
2024/01/20 10:21:44;;;;;;;3.67;3.20;;;-5.40;99.90;;;;;;4946647;28;20035;-77
2024/01/20 10:24:10;;;;;;;8.23;3.60;;;-5.40;99.90;;;;;;4952718;28;20075;-76
2024/01/20 10:26:43;;;;;;;6.95;5.43;;;-5.40;99.90;;;;;;4948283;28;20523;-76
2024/01/20 10:29:09;;;;;;;5.35;4.85;;;-5.20;99.90;;;;;;4950140;28;20035;-75
2024/01/20 10:31:35;;;;;;;4.35;3.97;;;-5.10;99.90;;;;;;4951295;28;20062;-76
2024/01/20 10:34:01;;;;;;;5.25;4.70;;;-5.10;99.90;;;;;;4946579;28;20084;-76
2024/01/20 10:36:28;;;;;;;5.30;3.97;;;-5.00;99.90;;;;;;4949219;28;20035;-77
2024/01/20 10:38:58;;;;;;;4.75;4.30;;;-5.00;99.90;;;;;;4948441;28;20040;-76
2024/01/20 10:41:24;;;;;;;7.85;5.35;;;-4.90;99.90;;;;;;4945739;28;20138;-77
2024/01/20 10:44:01;;;;;;;5.15;4.30;;;-4.70;99.90;;;;;;4947847;28;20091;-77
2024/01/20 10:46:31;;;;;;;5.78;4.90;;;-4.70;99.90;;;;;;4950845;28;20114;-76
2024/01/20 10:49:03;;;;;;;5.18;4.75;;;-4.60;99.90;;;;;;4952968;29;20050;-78
2024/01/20 10:51:29;;;;;;;5.30;4.43;;;-4.50;99.90;;;;;;4955024;29;20039;-75
2024/01/20 10:53:56;;;;;;;5.20;4.70;;;-4.40;99.90;;;;;;4952140;28;20035;-77
2024/01/20 10:56:24;;;;;;;7.65;5.45;;;-4.40;99.90;;;;;;4964513;28;20038;-77
2024/01/20 10:59:08;;;;;;;6.90;4.28;;;-4.20;99.90;;;;;;4952699;28;20055;-76
2024/01/20 11:01:35;;;;;;;10.80;4.80;;;-4.10;99.90;;;;;;4940449;29;20161;-76
2024/01/20 11:04:01;;;;;;;3.20;2.97;;;-4.10;99.90;;;;;;4956045;28;20035;-77
2024/01/20 11:06:27;;;;;;;5.90;4.90;;;-3.90;99.90;;;;;;4954052;28;20507;-76
2024/01/20 11:08:53;;;;;;;3.83;2.95;;;-3.80;99.90;;;;;;4957023;28;20075;-77
2024/01/20 11:11:25;;;;;;;6.32;3.83;;;-3.70;99.90;;;;;;4953096;28;20034;-76
2024/01/20 11:13:57;;;;;;;5.10;3.58;;;-3.70;99.90;;;;;;4954130;28;20042;-77
2024/01/20 11:16:23;;;;;;;5.28;3.78;;;-3.70;99.90;;;;;;4949228;28;20035;-76
2024/01/20 11:18:49;;;;;;;4.30;3.90;;;-3.60;99.90;;;;;;4948085;28;20416;-72
2024/01/20 11:21:16;;;;;;;6.15;4.70;;;-3.50;99.90;;;;;;4946520;28;20035;-71
2024/01/20 11:24:00;;;;;;;5.90;4.97;;;-3.40;99.90;;;;;;4938499;28;20030;-71
2024/01/20 11:26:36;;;;;;;4.45;4.05;;;-3.30;99.90;;;;;;4939552;28;20032;-72
2024/01/20 11:29:05;;;;;;;5.18;4.05;;;-3.20;99.90;;;;;;4949386;28;20368;-77
2024/01/20 11:31:31;;;;;;;7.53;6.18;;;-3.30;99.90;;;;;;4955136;28;20042;-76
2024/01/20 11:34:02;;;;;;;8.23;4.60;;;-3.20;99.90;;;;;;4955962;28;20027;-75
2024/01/20 11:36:29;;;;;;;7.78;4.72;;;-3.00;99.90;;;;;;4948825;29;20039;-77
2024/01/20 11:38:59;;;;;;;8.93;5.68;;;-2.90;99.90;;;;;;4955176;28;20039;-77
2024/01/20 11:41:25;;;;;;;4.85;3.58;;;-2.80;99.90;;;;;;4955890;28;20114;-77
2024/01/20 11:43:51;;;;;;;4.93;4.25;;;-2.70;99.90;;;;;;4955881;28;20076;-80
2024/01/20 11:46:18;;;;;;;4.22;2.97;;;-2.60;99.90;;;;;;4954072;28;20095;-79
2024/01/20 11:48:49;;;;;;;4.13;3.80;;;-2.50;99.90;;;;;;4959593;28;20090;-77
2024/01/20 11:51:16;;;;;;;5.13;3.95;;;-2.40;99.90;;;;;;4946632;29;20045;-77
2024/01/20 11:53:43;;;;;;;4.05;2.92;;;-2.50;99.90;;;;;;4954119;28;20031;-77
2024/01/20 11:56:08;;;;;;;7.47;5.15;;;-2.30;99.90;;;;;;4962352;28;20135;-77
2024/01/20 11:58:34;;;;;;;6.38;5.15;;;-2.30;99.90;;;;;;4949154;28;20236;-77
2024/01/20 12:01:01;;;;;;;6.47;4.50;;;-2.20;99.90;;;;;;4948993;29;20086;-76
2024/01/20 12:03:27;;;;;;;6.25;5.07;;;-2.20;99.90;;;;;;4953574;28;20057;-76
2024/01/20 12:05:53;;;;;;;7.60;5.13;;;-2.10;99.90;;;;;;4948195;29;20046;-76
2024/01/20 12:08:20;;;;;;;6.55;5.85;;;-2.10;99.90;;;;;;4952229;28;20028;-76
2024/01/20 12:10:46;;;;;;;6.32;4.82;;;-2.10;99.90;;;;;;4952590;28;20031;-76
2024/01/20 12:13:12;;;;;;;5.03;4.28;;;-2.00;99.90;;;;;;4953290;29;20032;-77
2024/01/20 12:15:42;;;;;;;9.27;4.40;;;-2.00;99.90;;;;;;4955408;28;20039;-76
2024/01/20 12:18:08;;;;;;;6.00;4.07;;;-2.00;99.90;;;;;;4950637;28;20031;-76
2024/01/20 12:20:36;;;;;;;6.38;4.05;;;-2.00;99.90;;;;;;4939029;29;20019;-75
2024/01/20 12:23:02;;;;;;;6.80;4.60;;;-2.00;99.90;;;;;;4948582;29;20495;-76
2024/01/20 12:25:31;;;;;;;6.60;4.32;;;-2.00;99.90;;;;;;4954088;28;20035;-76
2024/01/20 12:27:58;;;;;;;8.88;5.35;;;-1.90;99.90;;;;;;4951039;28;20114;-76
2024/01/20 12:30:24;;;;;;;6.70;4.28;;;-2.00;99.90;;;;;;4953553;29;20055;-75
2024/01/20 12:32:50;;;;;;;8.07;4.80;;;-1.90;99.90;;;;;;4950663;29;20172;-76
2024/01/20 12:35:17;;;;;;;8.30;5.25;;;-1.90;99.90;;;;;;4952618;29;20020;-78
2024/01/20 12:37:43;;;;;;;5.35;3.63;;;-1.90;99.90;;;;;;4951529;28;20035;-78
2024/01/20 12:40:10;;;;;;;15.07;6.30;;;-1.80;99.90;;;;;;4949706;29;20046;-75
2024/01/20 12:42:36;;;;;;;9.20;5.20;;;-1.70;99.90;;;;;;4949230;28;20027;-74
2024/01/20 12:45:02;;;;;;;5.70;5.00;;;-1.60;99.90;;;;;;4950118;29;20036;-74